sensor_id;sensor_type;location;lat;lon;timestamp;pressure;altitude;pressure_sealevel;temperature;humidity
74621;BME280;64861;47.546;19.254;2023-03-12T00:01:26;98530.50;;;22.46;42.33
74621;BME280;64861;47.546;19.254;2023-03-12T00:03:54;98539.50;;;22.45;42.20
74621;BME280;64861;47.546;19.254;2023-03-12T00:06:20;98546.66;;;22.44;42.42
74621;BME280;64861;47.546;19.254;2023-03-12T00:08:47;98554.84;;;22.43;42.60
74621;BME280;64861;47.546;19.254;2023-03-12T00:11:15;98558.97;;;22.45;42.21
74621;BME280;64861;47.546;19.254;2023-03-12T00:13:41;98568.59;;;22.46;42.17
74621;BME280;64861;47.546;19.254;2023-03-12T00:16:13;98570.63;;;22.44;42.20
74621;BME280;64861;47.546;19.254;2023-03-12T00:18:39;98574.94;;;22.45;42.24
74621;BME280;64861;47.546;19.254;2023-03-12T00:21:06;98566.53;;;22.42;42.01
74621;BME280;64861;47.546;19.254;2023-03-12T00:23:32;98562.84;;;22.43;42.23
74621;BME280;64861;47.546;19.254;2023-03-12T00:26:00;98570.84;;;22.43;42.28
74621;BME280;64861;47.546;19.254;2023-03-12T00:28:25;98572.47;;;22.44;42.23
74621;BME280;64861;47.546;19.254;2023-03-12T00:30:51;98574.03;;;22.38;42.12
74621;BME280;64861;47.546;19.254;2023-03-12T00:33:17;98568.50;;;22.33;42.21
74621;BME280;64861;47.546;19.254;2023-03-12T00:35:43;98574.31;;;22.43;41.98
74621;BME280;64861;47.546;19.254;2023-03-12T00:38:08;98580.84;;;22.41;42.17
74621;BME280;64861;47.546;19.254;2023-03-12T00:40:34;98584.13;;;22.43;42.19
74621;BME280;64861;47.546;19.254;2023-03-12T00:42:59;98590.22;;;22.37;42.32
74621;BME280;64861;47.546;19.254;2023-03-12T00:45:25;98601.13;;;22.42;42.21
74621;BME280;64861;47.546;19.254;2023-03-12T00:47:50;98595.81;;;22.42;42.14
74621;BME280;64861;47.546;19.254;2023-03-12T00:50:16;98603.97;;;22.40;42.20
74621;BME280;64861;47.546;19.254;2023-03-12T00:52:41;98607.28;;;22.42;41.75
74621;BME280;64861;47.546;19.254;2023-03-12T00:55:07;98618.09;;;22.41;42.05
74621;BME280;64861;47.546;19.254;2023-03-12T00:57:33;98619.72;;;22.35;42.40
74621;BME280;64861;47.546;19.254;2023-03-12T00:59:58;98612.53;;;22.36;41.97
74621;BME280;64861;47.546;19.254;2023-03-12T01:02:24;98612.34;;;22.37;42.17
74621;BME280;64861;47.546;19.254;2023-03-12T01:04:49;98621.53;;;22.35;41.84
74621;BME280;64861;47.546;19.254;2023-03-12T01:07:14;98621.97;;;22.38;41.82
74621;BME280;64861;47.546;19.254;2023-03-12T01:09:40;98621.97;;;22.38;41.84
74621;BME280;64861;47.546;19.254;2023-03-12T01:12:05;98621.16;;;22.38;41.79
74621;BME280;64861;47.546;19.254;2023-03-12T01:14:31;98625.03;;;22.35;41.59
74621;BME280;64861;47.546;19.254;2023-03-12T01:16:56;98630.81;;;22.39;41.96
74621;BME280;64861;47.546;19.254;2023-03-12T01:19:22;98623.19;;;22.36;41.89
74621;BME280;64861;47.546;19.254;2023-03-12T01:21:47;98623.38;;;22.34;41.84
74621;BME280;64861;47.546;19.254;2023-03-12T01:24:13;98629.34;;;22.36;41.70
74621;BME280;64861;47.546;19.254;2023-03-12T01:26:38;98618.31;;;22.39;41.66
74621;BME280;64861;47.546;19.254;2023-03-12T01:29:04;98625.41;;;22.32;42.08
74621;BME280;64861;47.546;19.254;2023-03-12T01:31:29;98628.69;;;22.34;41.86
74621;BME280;64861;47.546;19.254;2023-03-12T01:33:55;98634.84;;;22.35;41.95
74621;BME280;64861;47.546;19.254;2023-03-12T01:36:26;98634.00;;;22.34;41.84
74621;BME280;64861;47.546;19.254;2023-03-12T01:38:53;98632.97;;;22.28;42.05
74621;BME280;64861;47.546;19.254;2023-03-12T01:41:20;98631.28;;;22.27;42.03
74621;BME280;64861;47.546;19.254;2023-03-12T01:43:45;98627.22;;;22.32;41.82
74621;BME280;64861;47.546;19.254;2023-03-12T01:48:59;98633.56;;;22.31;41.73
74621;BME280;64861;47.546;19.254;2023-03-12T01:51:31;98628.63;;;22.27;41.64
74621;BME280;64861;47.546;19.254;2023-03-12T01:54:01;98625.41;;;22.32;41.62
74621;BME280;64861;47.546;19.254;2023-03-12T01:56:31;98630.75;;;22.32;41.86
74621;BME280;64861;47.546;19.254;2023-03-12T01:59:02;98632.38;;;22.33;41.81
74621;BME280;64861;47.546;19.254;2023-03-12T02:01:31;98636.06;;;22.32;41.74
74621;BME280;64861;47.546;19.254;2023-03-12T02:03:58;98642.00;;;22.34;41.64
74621;BME280;64861;47.546;19.254;2023-03-12T02:06:31;98650.56;;;22.30;41.49
74621;BME280;64861;47.546;19.254;2023-03-12T02:09:00;98650.56;;;22.30;41.55
74621;BME280;64861;47.546;19.254;2023-03-12T02:11:26;98651.97;;;22.25;41.56
74621;BME280;64861;47.546;19.254;2023-03-12T02:13:52;98655.63;;;22.24;41.79
74621;BME280;64861;47.546;19.254;2023-03-12T02:16:17;98651.59;;;22.28;41.69
74621;BME280;64861;47.546;19.254;2023-03-12T02:18:43;98657.72;;;22.29;41.33
74621;BME280;64861;47.546;19.254;2023-03-12T02:21:28;98658.09;;;22.26;41.63
74621;BME280;64861;47.546;19.254;2023-03-12T02:24:04;98663.97;;;22.21;41.74
74621;BME280;64861;47.546;19.254;2023-03-12T02:26:34;98659.69;;;22.20;41.60
74621;BME280;64861;47.546;19.254;2023-03-12T02:29:00;98664.25;;;22.26;41.48
74621;BME280;64861;47.546;19.254;2023-03-12T02:31:31;98657.66;;;22.22;41.43
74621;BME280;64861;47.546;19.254;2023-03-12T02:33:59;98663.97;;;22.21;41.71
74621;BME280;64861;47.546;19.254;2023-03-12T02:36:25;98668.75;;;22.26;41.96
74621;BME280;64861;47.546;19.254;2023-03-12T02:38:52;98690.88;;;22.26;41.58
74621;BME280;64861;47.546;19.254;2023-03-12T02:41:33;98681.41;;;22.24;41.55
74621;BME280;64861;47.546;19.254;2023-03-12T02:44:21;98681.78;;;22.21;41.56
74621;BME280;64861;47.546;19.254;2023-03-12T02:46:50;98688.38;;;22.25;41.46
74621;BME280;64861;47.546;19.254;2023-03-12T02:49:19;98695.53;;;22.24;41.28
74621;BME280;64861;47.546;19.254;2023-03-12T02:51:45;98698.56;;;22.21;41.53
74621;BME280;64861;47.546;19.254;2023-03-12T02:54:13;98697.59;;;22.22;41.50
74621;BME280;64861;47.546;19.254;2023-03-12T02:56:39;98702.91;;;22.22;41.39
74621;BME280;64861;47.546;19.254;2023-03-12T02:59:05;98713.34;;;22.24;41.24
74621;BME280;64861;47.546;19.254;2023-03-12T03:01:32;98716.22;;;22.22;41.41
74621;BME280;64861;47.546;19.254;2023-03-12T03:03:58;98721.53;;;22.22;41.19
74621;BME280;64861;47.546;19.254;2023-03-12T03:06:23;98728.69;;;22.22;41.24
74621;BME280;64861;47.546;19.254;2023-03-12T03:08:49;98725.19;;;22.21;41.63
74621;BME280;64861;47.546;19.254;2023-03-12T03:11:14;98723.56;;;22.20;41.64
74621;BME280;64861;47.546;19.254;2023-03-12T03:13:40;98726.59;;;22.17;41.66
74621;BME280;64861;47.546;19.254;2023-03-12T03:16:06;98727.59;;;22.16;41.51
74621;BME280;64861;47.546;19.254;2023-03-12T03:18:31;98726.03;;;22.22;41.40
74621;BME280;64861;47.546;19.254;2023-03-12T03:21:03;98741.34;;;22.20;41.49
74621;BME280;64861;47.546;19.254;2023-03-12T03:23:29;98742.38;;;22.19;41.58
74621;BME280;64861;47.546;19.254;2023-03-12T03:25:55;98734.03;;;22.22;41.25
74621;BME280;64861;47.546;19.254;2023-03-12T03:28:22;98741.94;;;22.15;41.40
74621;BME280;64861;47.546;19.254;2023-03-12T03:30:52;98761.19;;;22.17;41.23
74621;BME280;64861;47.546;19.254;2023-03-12T03:33:18;98758.84;;;22.14;41.48
74621;BME280;64861;47.546;19.254;2023-03-12T03:35:43;98764.88;;;22.16;41.27
74621;BME280;64861;47.546;19.254;2023-03-12T03:38:08;98765.19;;;22.13;41.37
74621;BME280;64861;47.546;19.254;2023-03-12T03:40:34;98770.63;;;22.20;41.30
74621;BME280;64861;47.546;19.254;2023-03-12T03:42:59;98766.69;;;22.16;41.23
74621;BME280;64861;47.546;19.254;2023-03-12T03:45:25;98765.00;;;22.15;41.23
74621;BME280;64861;47.546;19.254;2023-03-12T03:47:50;98767.97;;;22.20;40.94
74621;BME280;64861;47.546;19.254;2023-03-12T03:50:16;98762.81;;;22.18;41.04
74621;BME280;64861;47.546;19.254;2023-03-12T03:52:41;98762.44;;;22.21;40.90
74621;BME280;64861;47.546;19.254;2023-03-12T03:55:07;98761.84;;;22.19;41.36
74621;BME280;64861;47.546;19.254;2023-03-12T03:57:33;98751.69;;;22.15;41.10
74621;BME280;64861;47.546;19.254;2023-03-12T03:59:58;98758.41;;;22.11;41.32
74621;BME280;64861;47.546;19.254;2023-03-12T04:02:25;98758.78;;;22.08;41.06
74621;BME280;64861;47.546;19.254;2023-03-12T04:04:51;98767.03;;;22.13;41.09
74621;BME280;64861;47.546;19.254;2023-03-12T04:07:16;98769.50;;;22.14;41.14
74621;BME280;64861;47.546;19.254;2023-03-12T04:09:42;98783.63;;;22.15;41.22
74621;BME280;64861;47.546;19.254;2023-03-12T04:12:08;98769.69;;;22.13;40.68
74621;BME280;64861;47.546;19.254;2023-03-12T04:14:33;98764.75;;;22.10;41.13
74621;BME280;64861;47.546;19.254;2023-03-12T04:16:59;98772.91;;;22.08;41.23
74621;BME280;64861;47.546;19.254;2023-03-12T04:19:24;98794.03;;;22.10;41.55
74621;BME280;64861;47.546;19.254;2023-03-12T04:21:50;98797.88;;;22.07;41.24
74621;BME280;64861;47.546;19.254;2023-03-12T04:24:16;98812.00;;;22.08;41.38
74621;BME280;64861;47.546;19.254;2023-03-12T04:26:42;98831.63;;;22.07;41.47
74621;BME280;64861;47.546;19.254;2023-03-12T04:29:07;98838.59;;;22.08;41.35
74621;BME280;64861;47.546;19.254;2023-03-12T04:31:33;98837.97;;;22.05;41.40
74621;BME280;64861;47.546;19.254;2023-03-12T04:33:59;98850.72;;;22.10;41.15
74621;BME280;64861;47.546;19.254;2023-03-12T04:36:25;98851.28;;;22.05;41.38
74621;BME280;64861;47.546;19.254;2023-03-12T04:38:50;98841.81;;;22.03;41.42
74621;BME280;64861;47.546;19.254;2023-03-12T04:41:16;98852.63;;;22.01;41.07
74621;BME280;64861;47.546;19.254;2023-03-12T04:43:42;98856.03;;;21.95;41.53
74621;BME280;64861;47.546;19.254;2023-03-12T04:46:08;98868.78;;;22.00;41.57
74621;BME280;64861;47.546;19.254;2023-03-12T04:48:34;98856.97;;;22.02;41.25
74621;BME280;64861;47.546;19.254;2023-03-12T04:51:00;98859.44;;;22.04;41.29
74621;BME280;64861;47.546;19.254;2023-03-12T04:53:26;98860.97;;;21.98;41.38
74621;BME280;64861;47.546;19.254;2023-03-12T04:55:51;98867.25;;;22.05;41.07
74621;BME280;64861;47.546;19.254;2023-03-12T04:58:17;98867.59;;;22.02;41.37
74621;BME280;64861;47.546;19.254;2023-03-12T05:00:43;98868.44;;;22.03;41.08
74621;BME280;64861;47.546;19.254;2023-03-12T05:03:09;98869.63;;;22.00;41.24
74621;BME280;64861;47.546;19.254;2023-03-12T05:05:34;98875.22;;;22.05;41.19
74621;BME280;64861;47.546;19.254;2023-03-12T05:08:01;98875.41;;;22.04;41.33
74621;BME280;64861;47.546;19.254;2023-03-12T05:10:26;98883.47;;;21.96;41.07
74621;BME280;64861;47.546;19.254;2023-03-12T05:12:52;98879.91;;;22.03;41.13
74621;BME280;64861;47.546;19.254;2023-03-12T05:15:17;98880.34;;;22.07;41.09
74621;BME280;64861;47.546;19.254;2023-03-12T05:17:44;98890.34;;;22.05;41.10
74621;BME280;64861;47.546;19.254;2023-03-12T05:20:10;98891.72;;;22.01;41.02
74621;BME280;64861;47.546;19.254;2023-03-12T05:22:36;98890.34;;;22.05;41.26
74621;BME280;64861;47.546;19.254;2023-03-12T05:25:02;98897.69;;;22.03;41.34
74621;BME280;64861;47.546;19.254;2023-03-12T05:27:28;98899.34;;;22.04;41.26
74621;BME280;64861;47.546;19.254;2023-03-12T05:29:53;98900.53;;;22.01;40.91
74621;BME280;64861;47.546;19.254;2023-03-12T05:32:19;98905.69;;;22.03;41.01
74621;BME280;64861;47.546;19.254;2023-03-12T05:34:44;98910.19;;;22.02;41.18
74621;BME280;64861;47.546;19.254;2023-03-12T05:37:10;98919.91;;;22.10;40.39
74621;BME280;64861;47.546;19.254;2023-03-12T05:39:35;98917.81;;;22.05;41.15
74621;BME280;64861;47.546;19.254;2023-03-12T05:42:03;98916.31;;;22.03;41.27
74621;BME280;64861;47.546;19.254;2023-03-12T05:44:28;98921.44;;;22.04;41.22
74621;BME280;64861;47.546;19.254;2023-03-12T05:46:54;98919.44;;;22.07;40.78
74621;BME280;64861;47.546;19.254;2023-03-12T05:49:20;98921.19;;;21.99;41.15
74621;BME280;64861;47.546;19.254;2023-03-12T05:51:47;98926.59;;;22.06;41.16
74621;BME280;64861;47.546;19.254;2023-03-12T05:54:14;98930.44;;;22.03;41.01
74621;BME280;64861;47.546;19.254;2023-03-12T05:56:39;98938.75;;;22.09;41.04
74621;BME280;64861;47.546;19.254;2023-03-12T05:59:05;98929.44;;;22.04;41.07
74621;BME280;64861;47.546;19.254;2023-03-12T06:01:31;98952.41;;;22.05;41.00
74621;BME280;64861;47.546;19.254;2023-03-12T06:03:57;98951.19;;;22.08;40.77
74621;BME280;64861;47.546;19.254;2023-03-12T06:06:22;98959.63;;;22.12;40.82
74621;BME280;64861;47.546;19.254;2023-03-12T06:08:49;98960.38;;;22.05;41.01
74621;BME280;64861;47.546;19.254;2023-03-12T06:11:16;98971.66;;;22.08;40.92
74621;BME280;64861;47.546;19.254;2023-03-12T06:13:41;98969.66;;;22.10;41.13
74621;BME280;64861;47.546;19.254;2023-03-12T06:16:13;98966.53;;;22.06;40.78
74621;BME280;64861;47.546;19.254;2023-03-12T06:18:40;98976.81;;;22.09;40.93
74621;BME280;64861;47.546;19.254;2023-03-12T06:21:16;98985.97;;;22.07;40.96
74621;BME280;64861;47.546;19.254;2023-03-12T06:23:42;98989.94;;;22.11;40.90
74621;BME280;64861;47.546;19.254;2023-03-12T06:26:09;98996.25;;;22.10;40.96
74621;BME280;64861;47.546;19.254;2023-03-12T06:28:35;99000.56;;;22.11;40.92
74621;BME280;64861;47.546;19.254;2023-03-12T06:31:01;99018.84;;;22.14;40.81
74621;BME280;64861;47.546;19.254;2023-03-12T06:33:27;99008.53;;;22.19;40.88
74621;BME280;64861;47.546;19.254;2023-03-12T06:35:54;99013.84;;;22.19;40.88
74621;BME280;64861;47.546;19.254;2023-03-12T06:38:21;99012.50;;;22.23;40.74
74621;BME280;64861;47.546;19.254;2023-03-12T06:40:56;99019.81;;;22.21;40.92
74621;BME280;64861;47.546;19.254;2023-03-12T06:43:23;99029.38;;;22.15;41.13
74621;BME280;64861;47.546;19.254;2023-03-12T06:45:49;99037.16;;;22.17;41.09
74621;BME280;64861;47.546;19.254;2023-03-12T06:48:14;99041.31;;;22.19;40.48
74621;BME280;64861;47.546;19.254;2023-03-12T06:50:40;99034.06;;;22.28;40.63
74621;BME280;64861;47.546;19.254;2023-03-12T06:53:05;99035.44;;;22.24;40.69
74621;BME280;64861;47.546;19.254;2023-03-12T06:55:30;99043.41;;;22.24;40.42
74621;BME280;64861;47.546;19.254;2023-03-12T06:57:56;99045.81;;;22.19;40.86
74621;BME280;64861;47.546;19.254;2023-03-12T07:00:21;99045.25;;;22.23;40.79
74621;BME280;64861;47.546;19.254;2023-03-12T07:02:47;99049.88;;;22.30;40.50
74621;BME280;64861;47.546;19.254;2023-03-12T07:05:12;99053.81;;;22.34;40.47
74621;BME280;64861;47.546;19.254;2023-03-12T07:07:39;99057.31;;;22.34;40.21
74621;BME280;64861;47.546;19.254;2023-03-12T07:10:05;99064.94;;;22.37;40.55
74621;BME280;64861;47.546;19.254;2023-03-12T07:12:31;99064.69;;;22.47;40.15
74621;BME280;64861;47.546;19.254;2023-03-12T07:14:57;99060.66;;;22.51;39.96
74621;BME280;64861;47.546;19.254;2023-03-12T07:17:23;99058.69;;;22.45;40.28
74621;BME280;64861;47.546;19.254;2023-03-12T07:19:50;99074.31;;;22.48;40.06
74621;BME280;64861;47.546;19.254;2023-03-12T07:22:16;99073.44;;;22.56;40.04
74621;BME280;64861;47.546;19.254;2023-03-12T07:24:41;99078.47;;;22.50;39.65
74621;BME280;64861;47.546;19.254;2023-03-12T07:27:07;99079.41;;;22.58;39.27
74621;BME280;64861;47.546;19.254;2023-03-12T07:29:32;99080.31;;;22.65;39.80
74621;BME280;64861;47.546;19.254;2023-03-12T07:31:58;99083.47;;;22.68;39.56
74621;BME280;64861;47.546;19.254;2023-03-12T07:34:23;99085.50;;;22.81;39.42
74621;BME280;64861;47.546;19.254;2023-03-12T07:36:49;99079.44;;;22.87;39.35
74621;BME280;64861;47.546;19.254;2023-03-12T07:39:14;99083.91;;;22.95;39.11
74621;BME280;64861;47.546;19.254;2023-03-12T07:41:39;99091.25;;;23.08;38.92
74621;BME280;64861;47.546;19.254;2023-03-12T07:44:05;99098.50;;;23.14;38.38
74621;BME280;64861;47.546;19.254;2023-03-12T07:46:31;99093.84;;;23.16;38.72
74621;BME280;64861;47.546;19.254;2023-03-12T07:48:56;99096.97;;;23.19;38.59
74621;BME280;64861;47.546;19.254;2023-03-12T07:51:21;99087.94;;;23.20;38.59
74621;BME280;64861;47.546;19.254;2023-03-12T07:53:47;99102.03;;;23.29;38.40
74621;BME280;64861;47.546;19.254;2023-03-12T07:56:12;99089.97;;;23.33;38.17
74621;BME280;64861;47.546;19.254;2023-03-12T07:58:38;99091.44;;;23.36;38.32
74621;BME280;64861;47.546;19.254;2023-03-12T08:01:04;99093.91;;;23.37;38.40
74621;BME280;64861;47.546;19.254;2023-03-12T08:03:31;99094.19;;;23.42;38.04
74621;BME280;64861;47.546;19.254;2023-03-12T08:05:58;99096.50;;;23.45;38.16
74621;BME280;64861;47.546;19.254;2023-03-12T08:08:24;99099.16;;;23.45;38.18
74621;BME280;64861;47.546;19.254;2023-03-12T08:10:51;99097.78;;;23.50;38.37
74621;BME280;64861;47.546;19.254;2023-03-12T08:13:17;99108.91;;;23.53;37.82
74621;BME280;64861;47.546;19.254;2023-03-12T08:15:42;99109.72;;;23.54;37.45
74621;BME280;64861;47.546;19.254;2023-03-12T08:18:08;99100.16;;;23.59;37.79
74621;BME280;64861;47.546;19.254;2023-03-12T08:20:34;99110.00;;;23.59;37.71
74621;BME280;64861;47.546;19.254;2023-03-12T08:23:00;99113.13;;;23.62;37.85
74621;BME280;64861;47.546;19.254;2023-03-12T08:25:25;99112.53;;;23.67;37.80
74621;BME280;64861;47.546;19.254;2023-03-12T08:27:51;99112.03;;;23.72;37.63
74621;BME280;64861;47.546;19.254;2023-03-12T08:30:17;99116.34;;;23.73;37.24
74621;BME280;64861;47.546;19.254;2023-03-12T08:32:42;99112.28;;;23.77;37.63
74621;BME280;64861;47.546;19.254;2023-03-12T08:35:08;99107.78;;;23.77;37.60
74621;BME280;64861;47.546;19.254;2023-03-12T08:37:34;99121.38;;;23.82;37.60
74621;BME280;64861;47.546;19.254;2023-03-12T08:40:00;99123.84;;;23.84;37.69
74621;BME280;64861;47.546;19.254;2023-03-12T08:42:26;99125.84;;;23.97;37.20
74621;BME280;64861;47.546;19.254;2023-03-12T08:44:52;99130.19;;;23.98;36.57
74621;BME280;64861;47.546;19.254;2023-03-12T08:47:17;99133.94;;;24.03;36.63
74621;BME280;64861;47.546;19.254;2023-03-12T08:49:43;99137.97;;;24.35;36.82
74621;BME280;64861;47.546;19.254;2023-03-12T08:52:08;99132.69;;;24.85;35.98
74621;BME280;64861;47.546;19.254;2023-03-12T08:54:34;99139.31;;;25.52;34.69
74621;BME280;64861;47.546;19.254;2023-03-12T08:56:59;99129.53;;;26.47;33.35
74621;BME280;64861;47.546;19.254;2023-03-12T08:59:25;99121.53;;;27.13;32.25
74621;BME280;64861;47.546;19.254;2023-03-12T09:01:50;99128.19;;;27.62;31.46
74621;BME280;64861;47.546;19.254;2023-03-12T09:04:16;99127.84;;;27.97;30.41
74621;BME280;64861;47.546;19.254;2023-03-12T09:06:42;99125.09;;;28.10;30.35
74621;BME280;64861;47.546;19.254;2023-03-12T09:09:08;99132.41;;;28.35;30.08
74621;BME280;64861;47.546;19.254;2023-03-12T09:11:35;99119.75;;;28.42;29.50
74621;BME280;64861;47.546;19.254;2023-03-12T09:14:01;99129.78;;;28.53;28.83
74621;BME280;64861;47.546;19.254;2023-03-12T09:16:27;99124.19;;;28.80;28.88
74621;BME280;64861;47.546;19.254;2023-03-12T09:18:53;99118.06;;;28.98;28.38
74621;BME280;64861;47.546;19.254;2023-03-12T09:21:19;99112.72;;;29.16;28.47
74621;BME280;64861;47.546;19.254;2023-03-12T09:23:45;99117.34;;;29.09;28.85
74621;BME280;64861;47.546;19.254;2023-03-12T09:26:12;99120.94;;;29.40;28.64
74621;BME280;64861;47.546;19.254;2023-03-12T09:28:38;99123.72;;;29.33;27.67
74621;BME280;64861;47.546;19.254;2023-03-12T09:31:04;99129.69;;;29.54;27.58
74621;BME280;64861;47.546;19.254;2023-03-12T09:33:31;99122.44;;;29.54;27.71
74621;BME280;64861;47.546;19.254;2023-03-12T09:35:59;99122.53;;;29.66;27.71
74621;BME280;64861;47.546;19.254;2023-03-12T09:38:25;99119.50;;;29.92;26.85
74621;BME280;64861;47.546;19.254;2023-03-12T09:40:51;99121.72;;;29.95;26.58
74621;BME280;64861;47.546;19.254;2023-03-12T09:45:47;99116.72;;;29.99;26.46
74621;BME280;64861;47.546;19.254;2023-03-12T09:48:17;99108.41;;;30.01;26.93
74621;BME280;64861;47.546;19.254;2023-03-12T09:50:47;99116.84;;;30.04;27.28
74621;BME280;64861;47.546;19.254;2023-03-12T09:53:34;99124.31;;;29.90;27.00
74621;BME280;64861;47.546;19.254;2023-03-12T09:56:04;99127.41;;;30.06;27.00
74621;BME280;64861;47.546;19.254;2023-03-12T09:58:36;99120.81;;;30.02;26.84
74621;BME280;64861;47.546;19.254;2023-03-12T10:04:16;99125.16;;;30.21;27.03
74621;BME280;64861;47.546;19.254;2023-03-12T10:07:06;99120.50;;;30.10;26.44
74621;BME280;64861;47.546;19.254;2023-03-12T10:13:22;99119.31;;;30.36;25.95
74621;BME280;64861;47.546;19.254;2023-03-12T10:15:38;99125.16;;;30.33;26.04
74621;BME280;64861;47.546;19.254;2023-03-12T10:24:03;99121.91;;;30.42;25.80
74621;BME280;64861;47.546;19.254;2023-03-12T10:26:38;99120.97;;;30.37;25.92
74621;BME280;64861;47.546;19.254;2023-03-12T10:29:17;99129.19;;;30.42;25.72
74621;BME280;64861;47.546;19.254;2023-03-12T10:34:22;99122.03;;;30.48;25.58
74621;BME280;64861;47.546;19.254;2023-03-12T10:36:50;99125.31;;;30.50;25.57
74621;BME280;64861;47.546;19.254;2023-03-12T10:39:18;99131.41;;;30.45;25.80
74621;BME280;64861;47.546;19.254;2023-03-12T10:41:46;99126.97;;;30.51;25.79
74621;BME280;64861;47.546;19.254;2023-03-12T10:44:23;99133.41;;;30.38;26.02
74621;BME280;64861;47.546;19.254;2023-03-12T10:49:42;99124.25;;;30.39;25.86
74621;BME280;64861;47.546;19.254;2023-03-12T10:54:44;99125.59;;;30.60;25.81
74621;BME280;64861;47.546;19.254;2023-03-12T10:57:11;99128.28;;;30.72;25.82
74621;BME280;64861;47.546;19.254;2023-03-12T10:59:39;99131.31;;;30.52;25.69
74621;BME280;64861;47.546;19.254;2023-03-12T11:02:30;99139.97;;;30.42;26.08
74621;BME280;64861;47.546;19.254;2023-03-12T11:04:56;99138.88;;;30.31;26.35
74621;BME280;64861;47.546;19.254;2023-03-12T11:07:28;99136.16;;;30.19;26.37
74621;BME280;64861;47.546;19.254;2023-03-12T11:10:12;99132.94;;;30.11;26.54
74621;BME280;64861;47.546;19.254;2023-03-12T11:12:39;99128.41;;;29.93;27.08
74621;BME280;64861;47.546;19.254;2023-03-12T11:17:43;99129.69;;;29.54;27.46
74621;BME280;64861;47.546;19.254;2023-03-12T11:22:47;99125.75;;;28.94;28.36
74621;BME280;64861;47.546;19.254;2023-03-12T11:25:23;99121.41;;;28.43;29.11
74621;BME280;64861;47.546;19.254;2023-03-12T11:27:53;99125.44;;;26.98;31.35
74621;BME280;64861;47.546;19.254;2023-03-12T11:30:31;99123.34;;;26.27;32.23
74621;BME280;64861;47.546;19.254;2023-03-12T11:32:59;99111.69;;;25.86;33.03
74621;BME280;64861;47.546;19.254;2023-03-12T11:35:42;99123.03;;;25.47;33.69
74621;BME280;64861;47.546;19.254;2023-03-12T11:38:20;99120.81;;;25.22;34.33
74621;BME280;64861;47.546;19.254;2023-03-12T11:46:58;99118.63;;;24.76;35.09
74621;BME280;64861;47.546;19.254;2023-03-12T11:49:36;99123.09;;;24.69;35.14
74621;BME280;64861;47.546;19.254;2023-03-12T12:00:20;99126.47;;;24.35;36.04
74621;BME280;64861;47.546;19.254;2023-03-12T12:08:37;99113.69;;;24.09;36.47
74621;BME280;64861;47.546;19.254;2023-03-12T12:16:20;99099.53;;;23.94;36.64
74621;BME280;64861;47.546;19.254;2023-03-12T12:21:27;99100.94;;;23.89;36.95
74621;BME280;64861;47.546;19.254;2023-03-12T12:24:08;99097.25;;;23.90;36.87
74621;BME280;64861;47.546;19.254;2023-03-12T12:32:35;99099.97;;;23.76;36.99
74621;BME280;64861;47.546;19.254;2023-03-12T12:35:16;99087.44;;;23.76;37.02
74621;BME280;64861;47.546;19.254;2023-03-12T12:42:50;99087.06;;;23.79;36.70
74621;BME280;64861;47.546;19.254;2023-03-12T12:45:18;99090.94;;;23.77;36.72
74621;BME280;64861;47.546;19.254;2023-03-12T12:47:56;99088.84;;;23.72;36.83
74621;BME280;64861;47.546;19.254;2023-03-12T12:50:26;99087.38;;;23.70;37.02
74621;BME280;64861;47.546;19.254;2023-03-12T12:53:02;99094.56;;;23.69;36.84
74621;BME280;64861;47.546;19.254;2023-03-12T12:55:39;99094.34;;;23.71;36.79
74621;BME280;64861;47.546;19.254;2023-03-12T12:58:15;99095.72;;;23.66;36.87
74621;BME280;64861;47.546;19.254;2023-03-12T13:00:54;99098.97;;;23.62;37.03
74621;BME280;64861;47.546;19.254;2023-03-12T13:03:22;99088.44;;;23.60;37.04
74621;BME280;64861;47.546;19.254;2023-03-12T13:13:38;99092.97;;;23.60;37.00
74621;BME280;64861;47.546;19.254;2023-03-12T13:16:32;99096.28;;;23.62;36.93
74621;BME280;64861;47.546;19.254;2023-03-12T13:19:02;99097.84;;;23.56;37.11
74621;BME280;64861;47.546;19.254;2023-03-12T13:21:39;99100.97;;;23.60;37.00
74621;BME280;64861;47.546;19.254;2023-03-12T13:24:21;99101.16;;;23.58;37.15
74621;BME280;64861;47.546;19.254;2023-03-12T13:26:59;99099.31;;;23.59;37.03
74621;BME280;64861;47.546;19.254;2023-03-12T13:31:54;99096.47;;;23.60;37.33
74621;BME280;64861;47.546;19.254;2023-03-12T13:36:47;99099.69;;;23.56;37.16
74621;BME280;64861;47.546;19.254;2023-03-12T13:41:47;99103.84;;;23.58;37.24
74621;BME280;64861;47.546;19.254;2023-03-12T13:44:27;99111.84;;;23.58;37.14
74621;BME280;64861;47.546;19.254;2023-03-12T13:50:03;99108.81;;;23.61;37.31
74621;BME280;64861;47.546;19.254;2023-03-12T13:52:30;99115.59;;;23.64;37.38
74621;BME280;64861;47.546;19.254;2023-03-12T13:55:47;99111.84;;;23.58;37.34
74621;BME280;64861;47.546;19.254;2023-03-12T13:57:51;99114.97;;;23.62;37.25
74621;BME280;64861;47.546;19.254;2023-03-12T14:00:31;99105.69;;;23.58;37.33
74621;BME280;64861;47.546;19.254;2023-03-12T14:03:05;99111.84;;;23.58;37.34
74621;BME280;64861;47.546;19.254;2023-03-12T14:05:55;99122.75;;;23.63;37.13
74621;BME280;64861;47.546;19.254;2023-03-12T14:11:06;99111.66;;;23.60;37.29
74621;BME280;64861;47.546;19.254;2023-03-12T14:16:49;99112.47;;;23.60;37.37
74621;BME280;64861;47.546;19.254;2023-03-12T14:19:21;99110.94;;;23.51;37.37
74621;BME280;64861;47.546;19.254;2023-03-12T14:21:48;99124.53;;;23.56;37.28
74621;BME280;64861;47.546;19.254;2023-03-12T14:26:49;99120.00;;;23.57;37.29
74621;BME280;64861;47.546;19.254;2023-03-12T14:29:35;99120.22;;;23.55;37.41
74621;BME280;64861;47.546;19.254;2023-03-12T14:32:32;99126.38;;;23.56;37.35